Time;durP1;ratioP1;P1;durP2;ratioP2;P2;SDS_P1;SDS_P2;PMS_P1;PMS_P2;Temp;Humidity;BMP_temperature;BMP_pressure;BME280_temperature;BME280_humidity;BME280_pressure;Samples;Min_cycle;Max_cycle;Signal;HPM_P1;HPM_P2
2023/05/02 00:00:25;;;;;;;32.28;23.48;;;11.60;99.90;;;;;;5091254;28;20491;-60
2023/05/02 00:02:50;;;;;;;28.38;20.83;;;11.60;99.90;;;;;;5091485;28;20497;-60
2023/05/02 00:05:16;;;;;;;31.08;20.65;;;11.60;99.90;;;;;;5100393;28;20114;-61
2023/05/02 00:07:42;;;;;;;30.27;21.55;;;11.60;99.90;;;;;;5099484;28;20039;-60
2023/05/02 00:10:08;;;;;;;32.50;20.93;;;11.70;99.90;;;;;;5109925;28;20028;-61
2023/05/02 00:12:33;;;;;;;26.00;19.00;;;11.70;99.90;;;;;;5111524;28;20770;-61
2023/05/02 00:14:59;;;;;;;32.97;21.27;;;11.70;99.90;;;;;;5103048;28;20047;-61
2023/05/02 00:17:25;;;;;;;;;;;11.80;99.90;;;;;;5107981;28;20386;-61
2023/05/02 00:19:51;;;;;;;30.85;19.85;;;11.80;99.90;;;;;;5105011;28;19922;-61
2023/05/02 00:22:16;;;;;;;28.25;20.40;;;11.70;99.90;;;;;;5091117;28;20103;-61
2023/05/02 00:24:42;;;;;;;29.63;20.53;;;11.80;99.90;;;;;;5094120;28;20031;-61
2023/05/02 00:27:07;;;;;;;29.87;19.97;;;11.80;99.90;;;;;;5111083;28;20119;-61
2023/05/02 00:29:33;;;;;;;33.27;19.20;;;11.80;99.90;;;;;;5108162;28;20295;-60
2023/05/02 00:31:58;;;;;;;33.47;21.25;;;11.80;99.90;;;;;;5111487;28;20273;-61
2023/05/02 00:34:29;;;;;;;28.85;20.60;;;11.80;99.90;;;;;;5111687;28;20492;-60
2023/05/02 00:36:55;;;;;;;31.40;19.45;;;11.90;99.90;;;;;;5104821;28;20050;-61
2023/05/02 00:39:20;;;;;;;26.17;16.13;;;11.90;99.90;;;;;;5095774;28;20044;-61
2023/05/02 00:41:46;;;;;;;25.58;16.73;;;11.90;99.90;;;;;;5097131;28;20035;-61
2023/05/02 00:44:11;;;;;;;28.60;17.23;;;11.90;99.90;;;;;;5090146;28;20117;-60
2023/05/02 00:46:37;;;;;;;26.45;15.75;;;11.90;99.90;;;;;;5105344;28;20035;-61
2023/05/02 00:49:03;;;;;;;24.52;15.43;;;11.90;99.90;;;;;;5102582;28;20493;-60
2023/05/02 00:51:29;;;;;;;28.73;14.05;;;11.90;99.90;;;;;;5093427;28;20036;-61
2023/05/02 00:53:56;;;;;;;19.67;10.73;;;11.90;99.90;;;;;;5101765;27;20032;-60
2023/05/02 00:56:22;;;;;;;14.77;10.48;;;11.90;99.90;;;;;;5090361;28;20044;-60
2023/05/02 00:58:48;;;;;;;20.00;10.55;;;11.90;99.90;;;;;;5088991;28;20039;-61
2023/05/02 01:01:46;;;;;;;13.02;8.70;;;11.90;99.90;;;;;;5093724;28;20123;-61
2023/05/02 01:04:20;;;;;;;13.05;7.57;;;11.90;99.90;;;;;;5090073;28;20123;-60
2023/05/02 01:06:53;;;;;;;11.63;6.88;;;11.80;99.90;;;;;;5105174;28;20097;-61
2023/05/02 01:09:40;;;;;;;10.07;4.60;;;11.90;99.90;;;;;;5109375;28;20436;-60
2023/05/02 01:12:19;;;;;;;;;;;11.80;99.90;;;;;;5108364;28;20051;-60
2023/05/02 01:14:56;;;;;;;4.05;2.03;;;11.80;99.90;;;;;;5109769;28;19920;-60
2023/05/02 01:17:23;;;;;;;;;;;11.70;99.90;;;;;;5090931;28;20047;-60
2023/05/02 01:19:56;;;;;;;3.63;2.95;;;11.60;99.90;;;;;;5087916;28;19916;-61
2023/05/02 01:22:25;;;;;;;7.03;3.67;;;11.70;99.90;;;;;;5091379;28;20047;-60
2023/05/02 01:25:12;;;;;;;5.85;3.67;;;11.60;99.90;;;;;;5092606;28;20032;-61
2023/05/02 01:28:02;;;;;;;2.78;2.47;;;11.60;99.90;;;;;;5087900;28;20054;-61
2023/05/02 01:30:31;;;;;;;5.63;2.72;;;11.50;99.90;;;;;;5091727;28;20036;-61
2023/05/02 01:32:58;;;;;;;4.35;2.60;;;11.60;99.90;;;;;;5109618;28;20031;-61
2023/05/02 01:35:26;;;;;;;5.18;3.35;;;11.50;99.90;;;;;;5108826;28;20080;-61
2023/05/02 01:37:54;;;;;;;6.28;3.15;;;11.50;99.90;;;;;;5089151;28;20404;-61
2023/05/02 01:40:21;;;;;;;5.72;2.65;;;11.50;99.90;;;;;;5094012;28;20043;-60
2023/05/02 01:42:52;;;;;;;5.30;3.83;;;11.40;99.90;;;;;;5088297;28;20072;-60
2023/05/02 01:45:19;;;;;;;9.90;4.32;;;11.50;99.90;;;;;;5091231;28;20039;-61
2023/05/02 01:47:46;;;;;;;7.05;3.45;;;11.40;99.90;;;;;;5108592;28;20508;-61
2023/05/02 01:50:16;;;;;;;8.27;4.38;;;11.40;99.90;;;;;;5108077;28;20040;-60
2023/05/02 01:52:44;;;;;;;10.20;3.50;;;11.40;99.90;;;;;;5111816;28;20040;-61
2023/05/02 01:55:13;;;;;;;8.93;4.28;;;11.40;99.90;;;;;;5094107;28;20184;-61
2023/05/02 01:57:42;;;;;;;7.50;3.42;;;11.30;99.90;;;;;;5101880;28;20048;-61
2023/05/02 02:00:09;;;;;;;8.70;3.50;;;11.30;99.90;;;;;;5114137;28;20118;-61
2023/05/02 02:02:36;;;;;;;11.18;3.70;;;11.30;99.90;;;;;;5109979;28;20568;-60
2023/05/02 02:05:04;;;;;;;4.78;2.25;;;11.20;99.90;;;;;;5108635;28;20106;-61
2023/05/02 02:07:30;;;;;;;10.57;2.70;;;11.20;99.90;;;;;;5109631;28;20047;-60
2023/05/02 02:09:56;;;;;;;10.05;3.30;;;11.20;99.90;;;;;;5112223;28;20085;-61
2023/05/02 02:12:34;;;;;;;4.70;2.20;;;11.20;99.90;;;;;;5099632;28;20066;-61
2023/05/02 02:15:12;;;;;;;5.75;2.75;;;11.10;99.90;;;;;;5093580;28;20064;-61
2023/05/02 02:17:58;;;;;;;6.97;2.15;;;11.20;99.90;;;;;;5093997;28;20040;-61
2023/05/02 02:20:25;;;;;;;10.10;3.53;;;11.10;99.90;;;;;;5092816;28;20051;-60
2023/05/02 02:22:52;;;;;;;6.90;2.92;;;11.10;99.90;;;;;;5108625;28;20043;-60
2023/05/02 02:25:18;;;;;;;8.80;3.17;;;11.20;99.90;;;;;;5113849;28;20122;-61
2023/05/02 02:27:44;;;;;;;6.70;3.10;;;11.10;99.90;;;;;;5111183;28;20122;-61
2023/05/02 02:30:10;;;;;;;8.68;3.03;;;11.10;99.90;;;;;;5113025;28;20391;-60
2023/05/02 02:32:35;;;;;;;;;;;11.10;99.90;;;;;;5099796;28;20043;-60
2023/05/02 02:35:02;;;;;;;7.28;2.60;;;11.10;99.90;;;;;;5093237;28;19928;-61
2023/05/02 02:37:32;;;;;;;12.32;3.45;;;11.10;99.90;;;;;;5093700;28;20032;-60
2023/05/02 02:40:07;;;;;;;9.15;2.40;;;11.00;99.90;;;;;;5092470;28;20549;-61
2023/05/02 02:42:58;;;;;;;5.72;2.28;;;11.00;99.90;;;;;;5103259;28;20043;-61
2023/05/02 02:45:45;;;;;;;6.53;2.85;;;11.00;99.90;;;;;;5113111;28;20079;-60
2023/05/02 02:48:29;;;;;;;6.85;2.78;;;11.00;99.90;;;;;;5096746;28;20073;-61
2023/05/02 02:51:00;;;;;;;4.68;2.28;;;11.00;99.90;;;;;;5092325;28;20139;-60
2023/05/02 02:53:37;;;;;;;9.02;2.83;;;11.00;99.90;;;;;;5109156;28;20545;-61
2023/05/02 02:56:13;;;;;;;10.93;3.00;;;10.90;99.90;;;;;;5112676;28;20401;-61
2023/05/02 02:58:55;;;;;;;8.77;2.65;;;10.90;99.90;;;;;;5094565;28;20074;-60
2023/05/02 03:01:25;;;;;;;6.63;3.22;;;11.00;99.90;;;;;;5092810;28;20386;-61
2023/05/02 03:03:52;;;;;;;6.13;2.17;;;11.00;99.90;;;;;;5110207;28;20043;-61
2023/05/02 03:06:18;;;;;;;8.45;2.10;;;10.90;99.90;;;;;;5092880;28;20040;-61
2023/05/02 03:08:44;;;;;;;5.22;2.20;;;10.90;99.90;;;;;;5091279;28;20150;-61
2023/05/02 03:11:10;;;;;;;5.50;2.33;;;10.90;99.90;;;;;;5102248;28;20043;-60
2023/05/02 03:13:36;;;;;;;6.43;1.80;;;10.90;99.90;;;;;;5101971;28;20043;-61
2023/05/02 03:16:13;;;;;;;10.68;3.55;;;10.90;99.90;;;;;;5101450;28;20040;-61
2023/05/02 03:18:40;;;;;;;9.23;2.47;;;10.90;99.90;;;;;;5101344;28;20103;-61
2023/05/02 03:21:05;;;;;;;8.23;2.95;;;10.90;99.90;;;;;;5100703;28;20046;-61
2023/05/02 03:23:31;;;;;;;12.93;2.93;;;10.80;99.90;;;;;;5102650;28;20048;-60
2023/05/02 03:25:57;;;;;;;7.37;1.70;;;10.80;99.90;;;;;;5091919;28;20051;-60
2023/05/02 03:28:22;;;;;;;8.63;2.80;;;10.70;99.90;;;;;;5098526;28;20297;-59
2023/05/02 03:30:48;;;;;;;10.10;2.75;;;10.60;99.90;;;;;;5110930;28;20043;-60
2023/05/02 03:33:13;;;;;;;17.20;3.63;;;10.50;99.90;;;;;;5107578;28;20036;-61
2023/05/02 03:35:39;;;;;;;13.57;4.63;;;10.40;99.90;;;;;;5112704;28;20047;-60
2023/05/02 03:38:04;;;;;;;12.60;3.13;;;10.30;99.90;;;;;;5110053;28;20653;-60
2023/05/02 03:40:30;;;;;;;17.23;3.50;;;10.20;99.90;;;;;;5111639;28;20058;-60
2023/05/02 03:42:55;;;;;;;19.50;3.00;;;10.10;99.90;;;;;;5109753;28;20368;-61
2023/05/02 03:45:21;;;;;;;16.83;4.20;;;10.10;99.90;;;;;;5097849;28;20079;-61
2023/05/02 03:47:46;;;;;;;11.87;3.73;;;10.00;99.90;;;;;;5111013;28;20408;-61
2023/05/02 03:50:12;;;;;;;15.23;4.10;;;9.90;99.90;;;;;;5090620;28;20044;-61
2023/05/02 03:52:38;;;;;;;16.70;4.23;;;9.90;99.90;;;;;;5091970;28;20040;-61
2023/05/02 03:55:04;;;;;;;14.27;3.63;;;9.90;99.90;;;;;;5109546;28;20281;-60
2023/05/02 03:57:30;;;;;;;11.27;3.70;;;9.80;99.90;;;;;;5111578;28;20043;-61
2023/05/02 03:59:56;;;;;;;18.83;3.47;;;9.80;99.90;;;;;;5095072;28;20047;-60
2023/05/02 04:02:21;;;;;;;26.73;6.35;;;9.80;99.90;;;;;;5090849;28;20051;-60
2023/05/02 04:04:48;;;;;;;27.43;5.80;;;9.70;99.90;;;;;;5105630;28;20131;-61
2023/05/02 04:07:18;;;;;;;25.75;6.30;;;9.70;99.90;;;;;;5111523;28;20055;-61
2023/05/02 04:09:44;;;;;;;27.17;5.35;;;9.70;99.90;;;;;;5108529;28;20553;-60
2023/05/02 04:12:09;;;;;;;23.35;3.85;;;9.60;99.90;;;;;;5095526;28;20043;-61
2023/05/02 04:14:35;;;;;;;24.95;4.38;;;9.60;99.90;;;;;;5101097;28;20032;-60
2023/05/02 04:17:00;;;;;;;14.20;5.30;;;9.50;99.90;;;;;;5111268;28;20046;-61
2023/05/02 04:19:26;;;;;;;17.83;4.95;;;9.50;99.90;;;;;;5100889;28;20196;-60
2023/05/02 04:21:52;;;;;;;22.03;5.03;;;9.40;99.90;;;;;;5089893;28;20070;-59
2023/05/02 04:24:17;;;;;;;18.53;5.37;;;9.40;99.90;;;;;;5098643;28;20282;-60
2023/05/02 04:26:45;;;;;;;26.05;4.68;;;9.40;99.90;;;;;;5090935;28;20512;-61
2023/05/02 04:29:10;;;;;;;24.48;5.30;;;9.40;99.90;;;;;;5097649;28;20442;-60
2023/05/02 04:31:36;;;;;;;18.02;4.60;;;9.40;99.90;;;;;;5110978;28;20126;-61
2023/05/02 04:34:03;;;;;;;28.40;4.47;;;9.30;99.90;;;;;;5106870;28;20039;-61
2023/05/02 04:36:28;;;;;;;18.85;4.38;;;9.30;99.90;;;;;;5090755;28;20494;-59
2023/05/02 04:38:54;;;;;;;21.42;4.43;;;9.30;99.90;;;;;;5091249;28;20058;-60
2023/05/02 04:41:20;;;;;;;20.00;5.00;;;9.20;99.90;;;;;;5110008;28;20394;-60
2023/05/02 04:43:46;;;;;;;20.77;4.32;;;9.20;99.90;;;;;;5110820;28;20278;-60
2023/05/02 04:46:11;;;;;;;11.68;3.17;;;9.20;99.90;;;;;;5091019;28;20079;-60
2023/05/02 04:48:40;;;;;;;18.47;2.97;;;9.20;99.90;;;;;;5089989;28;20089;-59
2023/05/02 04:51:07;;;;;;;20.00;2.97;;;9.10;99.90;;;;;;5091079;28;20059;-60
2023/05/02 04:53:32;;;;;;;17.35;3.17;;;9.10;99.90;;;;;;5089262;28;20123;-60
2023/05/02 04:55:58;;;;;;;17.70;3.67;;;9.10;99.90;;;;;;5106850;28;20118;-61
2023/05/02 04:58:24;;;;;;;17.63;4.10;;;9.10;99.90;;;;;;5109491;28;20039;-61
2023/05/02 05:00:49;;;;;;;14.30;2.30;;;9.00;99.90;;;;;;5095601;28;20078;-60
2023/05/02 05:03:15;;;;;;;21.27;3.00;;;9.00;99.90;;;;;;5090451;28;20351;-60
2023/05/02 05:05:40;;;;;;;9.48;2.95;;;9.00;99.90;;;;;;5093367;28;20044;-60
2023/05/02 05:08:06;;;;;;;23.17;4.20;;;9.00;99.90;;;;;;5089868;28;20552;-62
2023/05/02 05:10:32;;;;;;;15.27;3.45;;;9.00;99.90;;;;;;5090327;28;20074;-59
2023/05/02 05:12:57;;;;;;;14.60;2.13;;;9.00;99.90;;;;;;5089899;28;20067;-60
2023/05/02 05:15:24;;;;;;;10.33;1.90;;;8.90;99.90;;;;;;5098533;28;20047;-60
2023/05/02 05:17:50;;;;;;;14.75;2.83;;;9.00;99.90;;;;;;5107852;28;20050;-59
2023/05/02 05:20:16;;;;;;;15.30;3.28;;;9.00;99.90;;;;;;5103128;28;20040;-59
2023/05/02 05:22:42;;;;;;;7.00;1.73;;;9.00;99.90;;;;;;5108086;28;20047;-60
2023/05/02 05:25:08;;;;;;;6.78;2.15;;;9.00;99.90;;;;;;5097274;28;20623;-60
2023/05/02 05:27:35;;;;;;;10.48;2.28;;;8.90;99.90;;;;;;5088983;28;20036;-60
2023/05/02 05:30:00;;;;;;;;;;;9.00;99.90;;;;;;5092427;28;20428;-60
2023/05/02 05:32:26;;;;;;;7.75;1.40;;;8.90;99.90;;;;;;5098367;28;19958;-60
2023/05/02 05:34:55;;;;;;;13.55;3.17;;;8.90;99.90;;;;;;5100537;28;20179;-60
2023/05/02 05:37:20;;;;;;;8.65;1.67;;;8.90;99.90;;;;;;5108436;28;20115;-60
2023/05/02 05:39:47;;;;;;;19.83;3.40;;;8.90;99.90;;;;;;5096582;28;20127;-58
2023/05/02 05:42:12;;;;;;;8.20;2.08;;;8.90;99.90;;;;;;5109436;28;20039;-60
2023/05/02 05:44:38;;;;;;;11.90;1.60;;;8.90;99.90;;;;;;5110064;28;20039;-60
2023/05/02 05:47:04;;;;;;;8.35;1.25;;;9.00;99.90;;;;;;5108290;28;20332;-60
2023/05/02 05:49:30;;;;;;;7.60;1.50;;;9.00;99.90;;;;;;5104018;28;20032;-60
2023/05/02 05:51:56;;;;;;;10.07;2.55;;;9.00;99.90;;;;;;5096579;28;20394;-60
2023/05/02 05:54:21;;;;;;;8.77;1.48;;;9.00;99.90;;;;;;5104075;28;20044;-61
2023/05/02 05:56:47;;;;;;;7.82;1.40;;;9.00;99.90;;;;;;5091457;28;20085;-60
2023/05/02 05:59:13;;;;;;;11.10;1.55;;;9.00;99.90;;;;;;5088145;28;20036;-59
2023/05/02 06:01:39;;;;;;;8.38;1.25;;;9.00;99.90;;;;;;5091968;28;20036;-60
2023/05/02 06:04:06;;;;;;;11.05;1.92;;;9.00;99.90;;;;;;5095843;28;20032;-61
2023/05/02 06:06:32;;;;;;;4.90;0.80;;;9.00;99.90;;;;;;5094624;28;20103;-60
2023/05/02 06:08:57;;;;;;;7.00;1.35;;;9.10;99.90;;;;;;5092170;28;20171;-62
2023/05/02 06:11:23;;;;;;;5.75;1.02;;;9.00;99.90;;;;;;5092627;28;20036;-60
2023/05/02 06:13:52;;;;;;;15.68;2.28;;;9.00;99.90;;;;;;5089698;28;20566;-61
2023/05/02 06:16:18;;;;;;;3.58;1.55;;;9.00;99.90;;;;;;5097011;28;20032;-60
2023/05/02 06:18:49;;;;;;;;;;;9.10;99.90;;;;;;5109435;28;20081;-60
2023/05/02 06:21:14;;;;;;;16.15;2.55;;;9.10;99.90;;;;;;5100908;28;19920;-60
2023/05/02 06:23:40;;;;;;;9.20;1.20;;;9.10;99.90;;;;;;5088231;28;20328;-59
2023/05/02 06:26:06;;;;;;;9.80;1.80;;;9.20;99.90;;;;;;5100378;28;20632;-62
2023/05/02 06:28:31;;;;;;;7.33;1.80;;;9.20;99.90;;;;;;5099546;28;20057;-60
2023/05/02 06:31:02;;;;;;;10.87;1.97;;;9.20;99.90;;;;;;5097523;28;20078;-60
2023/05/02 06:33:29;;;;;;;7.63;1.40;;;9.30;99.90;;;;;;5098291;28;20035;-61
2023/05/02 06:35:55;;;;;;;16.58;2.03;;;9.30;99.90;;;;;;5098398;28;20119;-61
2023/05/02 06:38:22;;;;;;;12.38;1.60;;;9.40;99.90;;;;;;5094859;28;20123;-61
2023/05/02 06:40:47;;;;;;;;;;;9.50;99.90;;;;;;5100535;28;20046;-62
2023/05/02 06:43:13;;;;;;;9.57;1.95;;;9.60;99.90;;;;;;5110695;28;20006;-61
2023/05/02 06:45:39;;;;;;;11.30;2.25;;;9.70;99.90;;;;;;5096860;28;20097;-62
2023/05/02 06:48:06;;;;;;;6.90;1.88;;;9.70;99.90;;;;;;5094282;28;20043;-61
2023/05/02 06:50:32;;;;;;;;;;;9.80;99.90;;;;;;5099487;28;20039;-55
2023/05/02 06:52:57;;;;;;;14.65;2.00;;;9.80;99.90;;;;;;5109355;27;20298;-57
2023/05/02 06:55:23;;;;;;;9.70;2.08;;;9.80;99.90;;;;;;5095976;28;20036;-55
2023/05/02 06:57:49;;;;;;;8.85;2.33;;;9.80;99.90;;;;;;5102193;28;20046;-58
2023/05/02 07:00:16;;;;;;;8.98;2.20;;;9.80;99.90;;;;;;5092379;28;20071;-56
2023/05/02 07:02:43;;;;;;;8.25;2.17;;;9.80;99.90;;;;;;5101618;28;20040;-55
2023/05/02 07:05:09;;;;;;;10.23;2.25;;;9.70;99.90;;;;;;5102039;28;20500;-56
2023/05/02 07:07:34;;;;;;;22.50;2.53;;;9.80;99.90;;;;;;5101503;28;20079;-56
2023/05/02 07:10:00;;;;;;;13.90;2.33;;;9.80;99.90;;;;;;5100591;28;20032;-57
2023/05/02 07:12:25;;;;;;;12.13;2.55;;;9.80;99.90;;;;;;5096433;28;20039;-56
2023/05/02 07:14:51;;;;;;;11.13;3.23;;;9.70;99.90;;;;;;5094993;28;20044;-56
2023/05/02 07:17:17;;;;;;;15.05;2.13;;;9.70;99.90;;;;;;5101493;28;20374;-57
2023/05/02 07:19:43;;;;;;;10.70;2.00;;;9.70;99.90;;;;;;5095409;27;20040;-55
2023/05/02 07:22:08;;;;;;;10.00;1.38;;;9.70;99.90;;;;;;5098599;28;20441;-57
2023/05/02 07:24:34;;;;;;;6.27;1.47;;;9.70;99.90;;;;;;5098562;28;20071;-55
2023/05/02 07:27:00;;;;;;;12.18;3.22;;;9.70;99.90;;;;;;5096161;28;20051;-60
2023/05/02 07:29:26;;;;;;;9.77;1.88;;;9.70;99.90;;;;;;5099001;28;20395;-60
2023/05/02 07:31:51;;;;;;;10.15;2.97;;;9.70;99.90;;;;;;5100649;28;20048;-59
2023/05/02 07:34:17;;;;;;;15.40;2.80;;;9.70;99.90;;;;;;5100425;28;20032;-60
2023/05/02 07:36:42;;;;;;;11.27;1.87;;;9.70;99.90;;;;;;5099095;28;20039;-57
2023/05/02 07:39:08;;;;;;;18.33;2.13;;;9.60;99.90;;;;;;5096736;28;20071;-56
2023/05/02 07:41:34;;;;;;;9.63;2.22;;;9.60;99.90;;;;;;5095986;28;20361;-55
2023/05/02 07:43:59;;;;;;;13.13;2.17;;;9.60;99.90;;;;;;5092204;28;20084;-56
2023/05/02 07:46:25;;;;;;;10.48;2.50;;;9.60;99.90;;;;;;5102702;28;20054;-60
2023/05/02 07:48:52;;;;;;;10.97;2.83;;;9.60;99.90;;;;;;5097692;28;20051;-59
2023/05/02 07:51:20;;;;;;;9.23;1.45;;;9.60;99.90;;;;;;5091135;28;20283;-58
2023/05/02 07:53:46;;;;;;;9.93;1.88;;;9.60;99.90;;;;;;5091375;28;20036;-59
2023/05/02 07:56:11;;;;;;;10.52;2.28;;;9.60;99.90;;;;;;5091788;28;20054;-58
2023/05/02 07:58:37;;;;;;;6.30;1.67;;;9.60;99.90;;;;;;5098046;28;20047;-58
2023/05/02 08:01:03;;;;;;;9.80;1.67;;;9.60;99.90;;;;;;5104873;28;20300;-58
2023/05/02 08:03:30;;;;;;;6.20;1.35;;;9.60;99.90;;;;;;5104833;28;20278;-59
2023/05/02 08:05:56;;;;;;;9.73;1.63;;;9.60;99.90;;;;;;5090691;28;20155;-58
2023/05/02 08:08:22;;;;;;;8.68;2.05;;;9.60;99.90;;;;;;5076316;28;20527;-56
2023/05/02 08:10:50;;;;;;;7.43;1.90;;;9.60;99.90;;;;;;5089360;28;20504;-58
2023/05/02 08:13:16;;;;;;;16.25;1.92;;;9.70;99.90;;;;;;5093539;28;20084;-58
2023/05/02 08:15:41;;;;;;;7.93;2.13;;;9.70;99.90;;;;;;5093109;28;20097;-59
2023/05/02 08:18:07;;;;;;;12.07;2.13;;;9.70;99.90;;;;;;5096998;28;20477;-59
2023/05/02 08:20:33;;;;;;;8.40;2.08;;;9.70;99.90;;;;;;5091811;28;20036;-59
2023/05/02 08:22:58;;;;;;;5.00;1.95;;;9.70;99.90;;;;;;5089923;28;20419;-58
2023/05/02 08:25:24;;;;;;;6.93;1.20;;;9.70;99.90;;;;;;5093393;28;20039;-59
2023/05/02 08:27:49;;;;;;;8.07;1.70;;;9.70;99.90;;;;;;5091694;28;20038;-59
2023/05/02 08:30:15;;;;;;;10.90;2.20;;;9.70;99.90;;;;;;5093485;28;20744;-58
2023/05/02 08:32:41;;;;;;;9.75;2.85;;;9.70;99.90;;;;;;5090997;28;20114;-58
2023/05/02 08:35:07;;;;;;;10.48;2.00;;;9.70;99.90;;;;;;5089508;28;20390;-58
2023/05/02 08:37:33;;;;;;;11.75;2.30;;;9.70;99.90;;;;;;5091049;28;20040;-58
2023/05/02 08:39:59;;;;;;;10.32;2.83;;;9.60;99.90;;;;;;5092982;28;20044;-58
2023/05/02 08:42:26;;;;;;;8.07;1.85;;;9.70;99.90;;;;;;5089789;28;20039;-59
2023/05/02 08:44:52;;;;;;;17.35;2.63;;;9.70;99.90;;;;;;5093434;28;20071;-58
2023/05/02 08:47:18;;;;;;;17.35;2.30;;;9.70;99.90;;;;;;5090055;28;20446;-60
2023/05/02 08:49:45;;;;;;;7.40;1.77;;;9.70;99.90;;;;;;5091204;28;20043;-62
2023/05/02 08:52:12;;;;;;;14.13;2.55;;;9.70;99.90;;;;;;5074629;28;20028;-59
2023/05/02 08:54:38;;;;;;;8.25;1.73;;;9.70;99.90;;;;;;5095283;28;20062;-59
2023/05/02 08:57:04;;;;;;;9.38;2.50;;;9.70;99.60;;;;;;5091747;28;20082;-58
2023/05/02 08:59:30;;;;;;;5.85;2.25;;;9.70;99.60;;;;;;5089585;28;20781;-58
2023/05/02 09:02:06;;;;;;;13.43;2.08;;;9.80;99.80;;;;;;5093511;28;20377;-58
2023/05/02 09:04:35;;;;;;;6.28;1.67;;;9.80;99.30;;;;;;5093426;28;20075;-60
2023/05/02 09:07:01;;;;;;;8.55;1.35;;;9.90;98.80;;;;;;5089754;28;20054;-59
2023/05/02 09:09:27;;;;;;;8.00;1.30;;;10.00;98.40;;;;;;5089934;28;20024;-59
2023/05/02 09:11:53;;;;;;;9.13;2.42;;;10.00;98.40;;;;;;5087683;28;20350;-58
2023/05/02 09:14:19;;;;;;;5.53;2.00;;;10.10;98.60;;;;;;5094263;28;20119;-59
2023/05/02 09:16:45;;;;;;;9.35;2.50;;;10.20;98.40;;;;;;5092604;28;20027;-59
2023/05/02 09:19:24;;;;;;;8.43;1.65;;;10.40;98.40;;;;;;5092430;28;20451;-59
2023/05/02 09:21:49;;;;;;;9.30;1.50;;;10.60;98.60;;;;;;5090488;28;20559;-59
2023/05/02 09:24:17;;;;;;;9.00;1.17;;;10.70;98.40;;;;;;5072563;28;20071;-59
2023/05/02 09:26:56;;;;;;;10.82;2.10;;;11.00;98.60;;;;;;5089595;28;20043;-59
2023/05/02 09:29:22;;;;;;;8.05;1.65;;;11.10;97.50;;;;;;5088686;28;20393;-59
2023/05/02 09:31:48;;;;;;;8.50;2.22;;;11.10;97.30;;;;;;5091072;28;20036;-59
2023/05/02 09:34:17;;;;;;;6.30;2.15;;;11.10;97.40;;;;;;5074101;28;20421;-59
2023/05/02 09:36:45;;;;;;;5.28;1.75;;;11.20;97.30;;;;;;5090407;28;20485;-59
2023/05/02 09:39:16;;;;;;;10.80;2.22;;;11.20;97.20;;;;;;5094715;28;20095;-60
2023/05/02 09:41:44;;;;;;;9.65;1.60;;;11.30;97.10;;;;;;5091230;28;20039;-60
2023/05/02 09:44:11;;;;;;;5.25;1.60;;;11.30;96.60;;;;;;5087657;28;20096;-59
2023/05/02 09:46:48;;;;;;;6.95;2.08;;;11.30;96.30;;;;;;5089921;28;20055;-59
2023/05/02 09:49:17;;;;;;;;;;;11.30;96.40;;;;;;5089912;28;20039;-59
2023/05/02 09:51:43;;;;;;;10.35;0.98;;;11.30;95.80;;;;;;5090676;28;20373;-59
2023/05/02 09:54:09;;;;;;;5.88;1.40;;;11.30;96.10;;;;;;5096001;28;20050;-59
2023/05/02 09:56:52;;;;;;;7.90;1.58;;;11.20;96.20;;;;;;5090242;28;20039;-59
2023/05/02 09:59:17;;;;;;;10.48;1.75;;;11.20;96.00;;;;;;5093230;28;20047;-59
2023/05/02 10:01:43;;;;;;;7.32;1.20;;;11.20;96.10;;;;;;5093527;28;20040;-60
2023/05/02 10:04:17;;;;;;;7.13;1.10;;;11.20;95.70;;;;;;5092728;28;20055;-60
2023/05/02 10:06:43;;;;;;;8.88;1.10;;;11.30;95.90;;;;;;5092738;28;20036;-60
2023/05/02 10:09:11;;;;;;;8.05;1.63;;;11.30;96.10;;;;;;5087846;28;20100;-60
2023/05/02 10:11:49;;;;;;;9.98;2.15;;;11.30;95.70;;;;;;5089743;28;20636;-60
2023/05/02 10:14:18;;;;;;;5.30;1.30;;;11.20;96.30;;;;;;5094473;28;20039;-60
2023/05/02 10:16:53;;;;;;;5.60;0.88;;;11.20;96.40;;;;;;5095821;28;20032;-61
2023/05/02 10:19:25;;;;;;;5.93;1.55;;;11.30;96.30;;;;;;5093159;28;20032;-61
2023/05/02 10:21:53;;;;;;;4.78;1.30;;;11.20;96.30;;;;;;5096370;28;20039;-60
2023/05/02 10:24:20;;;;;;;12.25;2.10;;;11.20;96.20;;;;;;5095797;28;20144;-60
2023/05/02 10:26:47;;;;;;;7.55;1.85;;;11.10;96.50;;;;;;5085838;28;20028;-60
2023/05/02 10:29:13;;;;;;;8.15;1.80;;;11.10;96.50;;;;;;5095901;28;20040;-60
2023/05/02 10:31:41;;;;;;;5.53;1.50;;;11.20;96.80;;;;;;5095073;28;20181;-59
2023/05/02 10:34:10;;;;;;;4.30;1.23;;;11.20;96.70;;;;;;5098032;28;20036;-59
2023/05/02 10:36:36;;;;;;;5.32;0.88;;;11.20;96.50;;;;;;5095237;28;20389;-59
2023/05/02 10:39:02;;;;;;;5.15;1.10;;;11.10;96.60;;;;;;5095666;28;20043;-60
2023/05/02 10:41:30;;;;;;;2.78;0.90;;;11.20;96.50;;;;;;5094612;28;20036;-60
2023/05/02 10:43:57;;;;;;;3.17;0.82;;;11.30;96.80;;;;;;5096121;28;20043;-59
2023/05/02 10:46:33;;;;;;;3.88;0.80;;;11.30;96.10;;;;;;5093957;28;20054;-58
2023/05/02 10:49:08;;;;;;;5.72;0.82;;;11.40;96.00;;;;;;5095502;28;20046;-59
2023/05/02 10:51:35;;;;;;;4.18;0.80;;;11.40;96.00;;;;;;5094625;28;20520;-59
2023/05/02 10:54:16;;;;;;;3.33;0.80;;;11.40;96.40;;;;;;5096535;28;20040;-60
2023/05/02 10:57:07;;;;;;;9.88;1.40;;;11.50;96.00;;;;;;5096833;28;20044;-60
2023/05/02 10:59:41;;;;;;;4.25;1.00;;;11.50;96.40;;;;;;5092264;28;20040;-60
2023/05/02 11:02:22;;;;;;;4.38;0.90;;;11.60;96.60;;;;;;5094670;27;20036;-60
2023/05/02 11:05:00;;;;;;;7.53;1.42;;;11.60;95.90;;;;;;5097857;28;20032;-59
2023/05/02 11:07:26;;;;;;;3.67;1.42;;;11.70;95.80;;;;;;5093112;28;20063;-60
2023/05/02 11:09:51;;;;;;;4.93;1.10;;;11.70;95.90;;;;;;5095328;28;20500;-60
2023/05/02 11:12:46;;;;;;;8.38;1.63;;;11.70;96.00;;;;;;5092999;28;20481;-60
2023/05/02 11:15:32;;;;;;;7.68;1.25;;;11.70;95.50;;;;;;5094557;28;20578;-60
2023/05/02 11:18:11;;;;;;;5.15;1.10;;;11.70;95.60;;;;;;5087554;28;20060;-60
2023/05/02 11:20:41;;;;;;;10.43;1.17;;;11.70;96.10;;;;;;5093473;28;20043;-59
2023/05/02 11:23:17;;;;;;;3.15;1.10;;;11.70;96.10;;;;;;5073801;28;20184;-59
2023/05/02 11:26:03;;;;;;;3.60;0.98;;;11.70;95.70;;;;;;5097102;28;20055;-59
2023/05/02 11:28:40;;;;;;;9.35;1.55;;;11.70;96.10;;;;;;5098749;28;20640;-60
2023/05/02 11:31:06;;;;;;;;;;;11.80;95.90;;;;;;5079667;28;20105;-59
2023/05/02 11:33:33;;;;;;;7.32;1.08;;;11.90;96.50;;;;;;5098609;28;19965;-60
2023/05/02 11:35:58;;;;;;;7.28;0.85;;;12.00;96.20;;;;;;5092595;28;20044;-59
2023/05/02 11:38:25;;;;;;;5.13;0.70;;;12.00;95.60;;;;;;5094741;28;20085;-59
2023/05/02 11:40:53;;;;;;;4.68;1.10;;;12.00;95.70;;;;;;5095283;28;20039;-60
2023/05/02 11:43:23;;;;;;;4.20;0.90;;;12.10;95.10;;;;;;5096732;28;20027;-59
2023/05/02 11:45:50;;;;;;;5.68;0.70;;;12.20;95.40;;;;;;5094462;28;20496;-60
2023/05/02 11:48:18;;;;;;;6.72;0.82;;;12.20;95.30;;;;;;5094573;28;20043;-60
2023/05/02 11:50:45;;;;;;;6.28;0.60;;;12.30;95.30;;;;;;5096989;28;20044;-59
2023/05/02 11:53:12;;;;;;;3.33;0.75;;;12.40;95.20;;;;;;5094855;28;20048;-61
2023/05/02 11:55:47;;;;;;;4.88;0.80;;;12.40;95.00;;;;;;5093259;28;20469;-60
2023/05/02 11:58:15;;;;;;;5.00;0.90;;;12.40;94.70;;;;;;5091435;28;20059;-59
2023/05/02 12:00:45;;;;;;;3.30;1.02;;;12.40;95.00;;;;;;5094265;28;20047;-60
2023/05/02 12:03:32;;;;;;;3.88;0.57;;;12.40;94.80;;;;;;5091384;28;20046;-58
2023/05/02 12:06:13;;;;;;;2.30;0.50;;;12.40;94.80;;;;;;5096089;28;20398;-61
2023/05/02 12:08:40;;;;;;;4.35;0.75;;;12.40;94.40;;;;;;5094290;28;20040;-59
2023/05/02 12:11:06;;;;;;;;;;;12.40;94.60;;;;;;5091740;28;20051;-59
2023/05/02 12:13:32;;;;;;;3.53;0.40;;;12.40;94.30;;;;;;5092173;28;19930;-59
2023/05/02 12:15:58;;;;;;;7.85;0.88;;;12.40;94.10;;;;;;5092418;28;20043;-59
2023/05/02 12:18:25;;;;;;;3.38;0.50;;;12.40;94.10;;;;;;5089674;28;20413;-59
2023/05/02 12:20:53;;;;;;;2.60;0.50;;;12.40;94.40;;;;;;5096586;28;20031;-60
2023/05/02 12:23:20;;;;;;;7.53;0.80;;;12.40;94.10;;;;;;5093013;28;20479;-58
2023/05/02 12:25:48;;;;;;;3.58;0.63;;;12.40;94.70;;;;;;5092228;28;20097;-58
2023/05/02 12:28:16;;;;;;;2.00;0.40;;;12.40;94.30;;;;;;5090455;28;20561;-59
2023/05/02 12:30:41;;;;;;;4.95;0.65;;;12.40;94.10;;;;;;5097088;28;20032;-59
2023/05/02 12:33:07;;;;;;;4.63;0.73;;;12.40;94.40;;;;;;5075456;28;20069;-59
2023/05/02 12:35:35;;;;;;;9.52;0.47;;;12.40;94.30;;;;;;5090949;28;20031;-60
2023/05/02 12:38:10;;;;;;;1.23;0.30;;;12.40;94.20;;;;;;5090033;28;20507;-59
2023/05/02 12:40:36;;;;;;;2.20;0.22;;;12.40;93.90;;;;;;5092785;28;20040;-59
2023/05/02 12:43:09;;;;;;;6.25;0.38;;;12.50;94.00;;;;;;5092077;28;20044;-58
2023/05/02 12:45:35;;;;;;;3.85;0.50;;;12.50;93.80;;;;;;5091079;28;20144;-57
2023/05/02 12:48:16;;;;;;;2.85;0.30;;;12.40;93.70;;;;;;5092098;28;20396;-59
2023/05/02 12:50:41;;;;;;;2.17;0.25;;;12.50;94.10;;;;;;5085207;28;20080;-59
2023/05/02 12:53:07;;;;;;;2.95;0.40;;;12.40;94.00;;;;;;5070840;28;20044;-59